createdAt,value
2018-04-18T00:00:46.207Z,7.10
2018-04-18T00:03:14.470Z,7.10
2018-04-18T00:05:42.036Z,7.00
2018-04-18T00:08:09.545Z,7.00
2018-04-18T00:10:37.855Z,7.00
2018-04-18T00:13:06.311Z,7.10
2018-04-18T00:15:33.830Z,7.10
2018-04-18T00:18:01.327Z,7.20
2018-04-18T00:20:29.620Z,7.10
2018-04-18T00:22:57.124Z,7.20
2018-04-18T00:25:25.435Z,7.20
2018-04-18T00:27:53.719Z,7.00
2018-04-18T00:30:22.009Z,6.90
2018-04-18T00:32:49.539Z,6.90
2018-04-18T00:35:17.063Z,6.90
2018-04-18T00:37:44.576Z,6.80
2018-04-18T00:40:12.100Z,6.70
2018-04-18T00:42:39.612Z,6.70
2018-04-18T00:45:07.179Z,6.70
2018-04-18T00:47:34.683Z,6.70
2018-04-18T00:50:02.212Z,6.80
2018-04-18T00:52:30.496Z,6.70
2018-04-18T00:54:57.979Z,6.70
2018-04-18T00:57:26.240Z,6.70
2018-04-18T00:59:53.766Z,6.70
2018-04-18T01:02:22.032Z,6.50
2018-04-18T01:04:49.550Z,6.50
2018-04-18T01:07:17.060Z,6.40
2018-04-18T01:09:44.575Z,6.40
2018-04-18T01:12:12.103Z,6.30
2018-04-18T01:14:40.357Z,6.20
2018-04-18T01:17:07.856Z,6.20
2018-04-18T01:19:35.359Z,6.20
2018-04-18T01:22:02.874Z,6.20
2018-04-18T01:24:30.390Z,6.20
2018-04-18T01:26:57.916Z,6.10
2018-04-18T01:29:26.204Z,6.10
2018-04-18T01:31:53.727Z,6.10
2018-04-18T01:34:21.222Z,6.00
2018-04-18T01:36:48.731Z,6.00
2018-04-18T01:39:16.243Z,5.90
2018-04-18T01:41:43.759Z,5.90
2018-04-18T01:44:11.277Z,5.90
2018-04-18T01:46:39.161Z,5.90
2018-04-18T01:49:18.570Z,5.90
2018-04-18T01:51:46.080Z,5.90
2018-04-18T01:54:13.607Z,5.90
2018-04-18T01:56:41.138Z,5.90
2018-04-18T01:59:09.407Z,5.80
2018-04-18T02:01:36.917Z,5.80
2018-04-18T02:04:05.180Z,5.70
2018-04-18T02:06:32.691Z,5.70
2018-04-18T02:09:00.968Z,5.70
2018-04-18T02:11:28.491Z,5.70
2018-04-18T02:13:56.008Z,5.70
2018-04-18T02:16:23.540Z,5.60
2018-04-18T02:18:51.822Z,5.60
2018-04-18T02:21:19.336Z,5.60
2018-04-18T02:23:47.646Z,5.50
2018-04-18T02:26:15.923Z,5.50
2018-04-18T02:28:43.415Z,5.40
2018-04-18T02:31:11.682Z,5.60
2018-04-18T02:33:39.194Z,5.60
2018-04-18T02:36:07.452Z,5.50
2018-04-18T02:38:34.963Z,5.50
2018-04-18T02:41:02.480Z,5.40
2018-04-18T02:43:29.998Z,5.30
2018-04-18T02:45:57.554Z,5.50
2018-04-18T02:48:25.069Z,5.60
2018-04-18T02:50:52.595Z,5.60
2018-04-18T02:53:20.880Z,5.50
2018-04-18T02:55:48.372Z,5.50
2018-04-18T02:58:15.854Z,5.50
2018-04-18T03:00:43.376Z,5.50
2018-04-18T03:03:10.876Z,5.40
2018-04-18T03:05:38.398Z,5.40
2018-04-18T03:08:06.122Z,5.30
2018-04-18T03:10:33.594Z,5.30
2018-04-18T03:13:01.141Z,5.20
2018-04-18T03:15:28.594Z,5.20
2018-04-18T03:17:56.096Z,5.20
2018-04-18T03:20:23.620Z,5.10
2018-04-18T03:22:51.151Z,5.30
2018-04-18T03:25:18.672Z,5.20
2018-04-18T03:27:46.223Z,5.30
2018-04-18T03:30:13.719Z,5.20
2018-04-18T03:32:41.245Z,5.20
2018-04-18T03:35:08.726Z,5.10
2018-04-18T03:37:37.032Z,5.00
2018-04-18T03:40:04.538Z,5.00
2018-04-18T03:42:32.031Z,5.00
2018-04-18T03:44:59.544Z,4.90
2018-04-18T03:47:27.122Z,4.90
2018-04-18T03:49:55.363Z,5.00
2018-04-18T03:52:22.867Z,5.00
2018-04-18T03:54:50.355Z,5.00
2018-04-18T03:57:17.862Z,4.90
2018-04-18T03:59:45.388Z,4.90
2018-04-18T04:02:12.906Z,4.90
2018-04-18T04:04:40.473Z,4.90
2018-04-18T04:07:08.731Z,4.80
2018-04-18T04:09:36.564Z,4.80
2018-04-18T04:12:04.858Z,4.80
2018-04-18T04:14:32.435Z,4.80
2018-04-18T04:17:11.625Z,4.80
2018-04-18T04:19:51.152Z,4.80
2018-04-18T04:22:30.608Z,4.80
2018-04-18T04:24:58.128Z,4.80
2018-04-18T04:27:26.387Z,5.00
2018-04-18T04:29:53.878Z,5.00
2018-04-18T04:32:23.273Z,5.10
2018-04-18T04:34:50.785Z,5.10
2018-04-18T04:37:18.292Z,5.10
2018-04-18T04:39:45.816Z,5.10
2018-04-18T04:42:13.302Z,5.20
2018-04-18T04:44:40.850Z,5.40
2018-04-18T04:47:09.261Z,5.50
2018-04-18T04:49:36.807Z,5.50
2018-04-18T04:52:04.332Z,5.50
2018-04-18T04:54:31.832Z,5.50
2018-04-18T04:56:59.331Z,5.60
2018-04-18T04:59:27.625Z,6.00
2018-04-18T05:01:55.171Z,6.00
2018-04-18T05:04:22.682Z,6.10
2018-04-18T05:06:50.199Z,6.10
2018-04-18T05:09:17.726Z,6.20
2018-04-18T05:11:45.253Z,6.30
2018-04-18T05:14:12.768Z,6.50
2018-04-18T05:16:40.275Z,6.70
2018-04-18T05:19:08.538Z,7.10
2018-04-18T05:21:36.386Z,7.00
2018-04-18T05:24:20.747Z,7.30
2018-04-18T05:26:48.401Z,7.40
2018-04-18T05:29:15.921Z,7.60
2018-04-18T05:31:44.211Z,7.90
2018-04-18T05:34:11.746Z,7.90
2018-04-18T05:36:40.046Z,8.10
2018-04-18T05:39:07.530Z,8.10
2018-04-18T05:41:35.066Z,8.30
2018-04-18T05:44:03.373Z,8.50
2018-04-18T05:46:30.883Z,8.50
2018-04-18T05:48:59.175Z,8.70
2018-04-18T05:54:19.999Z,8.90
2018-04-18T05:56:47.526Z,9.40
2018-04-18T05:59:15.027Z,9.90
2018-04-18T06:01:42.529Z,10.60
2018-04-18T06:04:10.855Z,11.90
2018-04-18T06:06:38.803Z,11.90
2018-04-18T06:09:06.340Z,12.30
2018-04-18T06:11:33.870Z,12.70
2018-04-18T06:14:01.426Z,13.90
2018-04-18T06:16:28.949Z,14.70
2018-04-18T06:18:57.248Z,15.70
2018-04-18T06:21:25.512Z,16.60
2018-04-18T06:23:53.003Z,16.50
2018-04-18T06:26:20.528Z,17.40
2018-04-18T06:28:48.829Z,18.50
2018-04-18T06:31:17.082Z,18.60
2018-04-18T06:33:44.614Z,18.60
2018-04-18T06:36:12.882Z,18.00
2018-04-18T06:38:40.423Z,18.00
2018-04-18T06:41:07.911Z,17.30
2018-04-18T06:43:35.439Z,17.80
2018-04-18T06:46:02.939Z,17.50
2018-04-18T06:48:31.208Z,17.40
2018-04-18T06:50:58.740Z,17.40
2018-04-18T06:53:26.250Z,17.40
2018-04-18T06:55:53.815Z,17.50
2018-04-18T06:58:21.329Z,18.20
2018-04-18T07:00:48.850Z,20.00
2018-04-18T07:03:17.142Z,20.20
2018-04-18T07:05:44.693Z,20.10
2018-04-18T07:08:12.192Z,21.00
2018-04-18T07:10:39.684Z,21.50
2018-04-18T07:13:07.164Z,22.90
2018-04-18T07:15:34.708Z,23.50
2018-04-18T07:18:02.227Z,23.30
2018-04-18T07:20:29.738Z,23.60
2018-04-18T07:22:58.018Z,22.40
2018-04-18T07:25:25.520Z,22.30
2018-04-18T07:27:53.806Z,21.40
2018-04-18T07:30:21.296Z,21.30
2018-04-18T07:32:48.817Z,22.90
2018-04-18T07:35:16.316Z,22.30
2018-04-18T07:37:43.824Z,23.00
2018-04-18T07:40:11.395Z,23.30
2018-04-18T07:42:38.886Z,24.30
2018-04-18T07:45:06.455Z,24.40
2018-04-18T07:47:33.993Z,23.90
2018-04-18T07:50:02.251Z,25.00
2018-04-18T07:52:29.787Z,24.90
2018-04-18T07:54:57.364Z,27.00
2018-04-18T07:57:24.808Z,24.90
2018-04-18T07:59:52.312Z,24.80
2018-04-18T08:02:19.840Z,25.60
2018-04-18T08:04:47.409Z,24.80
2018-04-18T08:07:15.012Z,25.70
2018-04-18T08:09:42.508Z,26.10
2018-04-18T08:12:10.041Z,26.70
2018-04-18T08:14:38.342Z,27.90
2018-04-18T08:17:06.647Z,27.90
2018-04-18T08:19:34.163Z,27.90
2018-04-18T08:22:01.675Z,28.00
2018-04-18T08:24:29.296Z,28.30
2018-04-18T08:26:56.832Z,28.20
2018-04-18T08:29:24.381Z,27.60
2018-04-18T08:31:52.644Z,26.50
2018-04-18T08:34:20.177Z,26.50
2018-04-18T08:36:48.480Z,27.00
2018-04-18T08:39:16.731Z,28.50
2018-04-18T08:41:44.291Z,28.40
2018-04-18T08:44:11.824Z,28.90
2018-04-18T08:46:39.346Z,28.30
2018-04-18T08:49:06.890Z,29.50
2018-04-18T08:51:35.188Z,30.30
2018-04-18T08:54:02.688Z,30.20
2018-04-18T08:56:30.989Z,29.80
2018-04-18T08:58:58.500Z,29.80
2018-04-18T09:01:25.992Z,28.80
2018-04-18T09:03:53.486Z,29.80
2018-04-18T09:06:20.985Z,30.70
2018-04-18T09:08:48.454Z,29.00
2018-04-18T09:11:15.926Z,26.30
2018-04-18T09:13:43.407Z,25.40
2018-04-18T09:16:10.895Z,25.20
2018-04-18T09:18:38.375Z,26.30
2018-04-18T09:21:05.842Z,26.00
2018-04-18T09:23:33.328Z,26.50
2018-04-18T09:26:00.800Z,29.10
2018-04-18T09:28:29.065Z,30.50
2018-04-18T09:30:56.514Z,30.50
2018-04-18T09:33:23.995Z,30.90
2018-04-18T09:35:51.463Z,30.80
2018-04-18T09:38:18.960Z,30.80
2018-04-18T09:40:46.440Z,32.80
2018-04-18T09:43:13.927Z,29.10
2018-04-18T09:45:41.407Z,29.40
2018-04-18T09:48:08.895Z,29.20
2018-04-18T09:50:36.378Z,30.70
2018-04-18T09:53:03.845Z,30.70
2018-04-18T09:55:31.336Z,30.60
2018-04-18T09:57:58.811Z,31.80
2018-04-18T10:00:32.042Z,30.40
2018-04-18T10:03:05.395Z,29.90
2018-04-18T10:05:33.639Z,28.10
2018-04-18T10:08:01.882Z,29.20
2018-04-18T10:10:29.357Z,29.20
2018-04-18T10:12:56.822Z,29.90
2018-04-18T10:15:24.306Z,29.80
2018-04-18T10:17:51.771Z,29.40
2018-04-18T10:20:20.019Z,29.30
2018-04-18T10:22:47.526Z,29.30
2018-04-18T10:25:14.971Z,29.60
2018-04-18T10:27:42.443Z,29.50
2018-04-18T10:30:09.927Z,29.70
2018-04-18T10:32:37.420Z,30.10
2018-04-18T10:35:04.886Z,28.40
2018-04-18T10:37:32.366Z,29.40
2018-04-18T10:39:59.846Z,30.00
2018-04-18T10:42:27.323Z,28.80
2018-04-18T10:44:54.815Z,29.70
2018-04-18T10:47:22.291Z,28.30
2018-04-18T10:49:50.548Z,27.50
2018-04-18T10:52:18.020Z,27.50
2018-04-18T10:54:45.491Z,26.70
2018-04-18T10:57:12.978Z,26.50
2018-04-18T10:59:40.446Z,28.50
2018-04-18T11:02:07.932Z,29.00
2018-04-18T11:04:35.395Z,30.20
2018-04-18T11:07:02.878Z,29.00
2018-04-18T11:09:31.110Z,26.30
2018-04-18T11:11:58.575Z,26.20
2018-04-18T11:14:26.068Z,26.50
2018-04-18T11:16:53.525Z,26.80
2018-04-18T11:19:21.012Z,26.70
2018-04-18T11:21:48.478Z,26.20
2018-04-18T11:24:16.738Z,28.80
2018-04-18T11:26:44.207Z,28.80
2018-04-18T11:29:11.679Z,30.20
2018-04-18T11:31:39.169Z,27.70
2018-04-18T11:34:06.784Z,29.20
2018-04-18T11:36:34.492Z,27.60
2018-04-18T11:39:02.792Z,27.90
2018-04-18T11:41:30.253Z,27.90
2018-04-18T11:43:57.746Z,28.90
2018-04-18T11:46:25.205Z,27.80
2018-04-18T11:48:52.822Z,26.40
2018-04-18T11:51:20.314Z,29.30
2018-04-18T11:53:47.810Z,30.30
2018-04-18T11:56:16.063Z,30.90
2018-04-18T11:58:43.535Z,30.90
2018-04-18T12:01:11.014Z,30.70
2018-04-18T12:03:38.489Z,31.20
2018-04-18T12:06:05.981Z,31.10
2018-04-18T12:08:33.442Z,33.70
2018-04-18T12:11:01.687Z,33.90
2018-04-18T12:13:29.149Z,33.80
2018-04-18T12:15:56.640Z,31.60
2018-04-18T12:18:24.115Z,30.80
2018-04-18T12:20:51.595Z,30.70
2018-04-18T12:23:19.067Z,28.80
2018-04-18T12:25:46.569Z,31.10
2018-04-18T12:28:14.039Z,32.20
2018-04-18T12:30:42.290Z,32.60
2018-04-18T12:33:09.851Z,32.60
2018-04-18T12:35:37.394Z,32.50
2018-04-18T12:38:05.638Z,33.70
2018-04-18T12:40:33.269Z,33.60
2018-04-18T12:43:00.734Z,33.70
2018-04-18T12:45:28.211Z,30.90
2018-04-18T12:47:55.698Z,31.40
2018-04-18T12:50:23.943Z,33.70
2018-04-18T12:52:51.429Z,33.60
2018-04-18T12:55:18.947Z,33.00
2018-04-18T12:57:46.417Z,33.20
2018-04-18T13:00:13.887Z,29.90
2018-04-18T13:02:42.147Z,32.70
2018-04-18T13:05:09.633Z,32.70
2018-04-18T13:07:37.111Z,33.00
2018-04-18T13:10:04.587Z,33.20
2018-04-18T13:12:32.067Z,33.40
2018-04-18T13:14:59.554Z,34.80
2018-04-18T13:17:27.022Z,35.10
2018-04-18T13:19:54.528Z,35.80
2018-04-18T13:22:22.009Z,35.90
2018-04-18T13:24:49.487Z,35.00
2018-04-18T13:27:16.949Z,35.90
2018-04-18T13:29:44.421Z,36.40
2018-04-18T13:32:12.653Z,34.30
2018-04-18T13:34:40.137Z,34.20
2018-04-18T13:37:07.635Z,33.90
2018-04-18T13:39:35.119Z,33.30
2018-04-18T13:42:02.595Z,33.60
2018-04-18T13:44:30.066Z,33.20
2018-04-18T13:46:57.551Z,33.60
2018-04-18T13:49:25.027Z,34.00
2018-04-18T13:51:52.508Z,33.90
2018-04-18T13:54:20.763Z,34.30
2018-04-18T13:56:48.245Z,34.30
2018-04-18T13:59:15.707Z,32.80
2018-04-18T14:01:43.177Z,30.40
2018-04-18T14:04:10.657Z,29.30
2018-04-18T14:06:39.169Z,28.70
2018-04-18T14:09:06.672Z,29.90
2018-04-18T14:11:34.141Z,31.40
2018-04-18T14:14:01.626Z,32.00
2018-04-18T14:16:29.095Z,29.70
2018-04-18T14:18:56.589Z,26.60
2018-04-18T14:21:24.070Z,27.70
2018-04-18T14:23:52.306Z,29.50
2018-04-18T14:26:19.783Z,29.50
2018-04-18T14:28:47.262Z,30.10
2018-04-18T14:31:14.749Z,29.70
2018-04-18T14:33:45.339Z,26.60
2018-04-18T14:36:27.595Z,25.60
2018-04-18T14:38:55.847Z,27.50
2018-04-18T14:41:23.315Z,27.40
2018-04-18T14:43:50.803Z,28.70
2018-04-18T14:46:18.257Z,29.60
2018-04-18T14:48:45.735Z,30.60
2018-04-18T14:51:13.219Z,29.10
2018-04-18T14:53:40.715Z,25.90
2018-04-18T14:56:08.327Z,25.60
2018-04-18T14:58:35.857Z,25.40
2018-04-18T15:01:03.323Z,25.00
2018-04-18T15:03:30.803Z,24.80
2018-04-18T15:05:58.271Z,24.20
2018-04-18T15:08:25.750Z,23.90
2018-04-18T15:10:53.221Z,24.20
2018-04-18T15:13:20.706Z,24.30
2018-04-18T15:15:48.170Z,24.00
2018-04-18T15:18:15.639Z,23.90
2018-04-18T15:20:43.912Z,23.60
2018-04-18T15:23:11.376Z,23.50
2018-04-18T15:25:39.375Z,23.20
2018-04-18T15:28:07.261Z,23.10
2018-04-18T15:30:35.563Z,22.60
2018-04-18T15:33:03.043Z,22.60
2018-04-18T15:35:30.537Z,22.40
2018-04-18T15:37:58.008Z,22.40
2018-04-18T15:40:25.482Z,22.50
2018-04-18T15:42:52.979Z,22.60
2018-04-18T15:45:20.461Z,22.40
2018-04-18T15:47:47.925Z,22.40
2018-04-18T15:50:16.184Z,22.70
2018-04-18T15:52:43.647Z,22.60
2018-04-18T15:55:11.139Z,22.60
2018-04-18T15:57:38.627Z,22.50
2018-04-18T16:00:06.115Z,22.40
2018-04-18T16:02:33.589Z,22.00
2018-04-18T16:05:01.063Z,21.90
2018-04-18T16:07:28.546Z,21.90
2018-04-18T16:09:56.002Z,21.90
2018-04-18T16:12:24.252Z,21.80
2018-04-18T16:14:51.730Z,21.80
2018-04-18T16:17:19.279Z,22.00
2018-04-18T16:19:46.783Z,21.80
2018-04-18T16:22:14.254Z,21.80
2018-04-18T16:24:41.736Z,21.80
2018-04-18T16:27:09.236Z,21.70
2018-04-18T16:29:43.466Z,21.50
2018-04-18T16:32:11.714Z,21.40
2018-04-18T16:34:39.202Z,21.30
2018-04-18T16:37:17.246Z,21.40
2018-04-18T16:39:44.709Z,21.40
2018-04-18T16:42:12.221Z,21.50
2018-04-18T16:44:39.678Z,21.30
2018-04-18T16:47:07.151Z,21.10
2018-04-18T16:49:34.650Z,21.10
2018-04-18T16:52:02.337Z,21.00
2018-04-18T16:54:29.815Z,21.00
2018-04-18T16:56:57.298Z,21.00
2018-04-18T16:59:24.777Z,20.90
2018-04-18T17:01:52.251Z,20.70
2018-04-18T17:04:19.739Z,20.60
2018-04-18T17:06:47.281Z,20.50
2018-04-18T17:09:14.731Z,20.50
2018-04-18T17:11:42.941Z,20.30
2018-04-18T17:14:10.425Z,20.30
2018-04-18T17:16:38.849Z,20.30
2018-04-18T17:19:06.382Z,20.20
2018-04-18T17:21:33.876Z,20.10
2018-04-18T17:24:01.356Z,20.10
2018-04-18T17:26:37.760Z,19.90
2018-04-18T17:29:06.032Z,19.80
2018-04-18T17:31:33.554Z,19.70
2018-04-18T17:34:01.859Z,19.50
2018-04-18T17:36:29.422Z,19.50
2018-04-18T17:39:08.146Z,19.30
2018-04-18T17:41:35.700Z,19.30
2018-04-18T17:44:03.395Z,19.20
2018-04-18T17:46:30.927Z,19.00
2018-04-18T17:48:58.447Z,18.80
2018-04-18T17:51:26.728Z,18.40
2018-04-18T17:53:54.241Z,18.40
2018-04-18T17:56:22.535Z,18.00
2018-04-18T17:58:50.914Z,17.70
2018-04-18T18:01:19.364Z,17.70
2018-04-18T18:04:08.471Z,17.50
2018-04-18T18:06:36.024Z,17.20
2018-04-18T18:09:04.287Z,16.80
2018-04-18T18:11:31.799Z,16.80
2018-04-18T18:14:00.084Z,16.50
2018-04-18T18:16:27.588Z,16.40
2018-04-18T18:18:55.139Z,16.30
2018-04-18T18:21:22.668Z,16.20
2018-04-18T18:23:50.174Z,16.20
2018-04-18T18:26:18.528Z,15.80
2018-04-18T18:28:46.052Z,15.70
2018-04-18T18:31:13.623Z,15.70
2018-04-18T18:33:41.160Z,15.70
2018-04-18T18:36:08.716Z,15.60
2018-04-18T18:38:40.922Z,15.30
2018-04-18T18:41:09.266Z,15.10
2018-04-18T18:43:36.855Z,15.10
2018-04-18T18:46:05.153Z,15.00
2018-04-18T18:48:32.659Z,15.00
2018-04-18T18:51:00.183Z,14.90
2018-04-18T18:53:28.530Z,15.10
2018-04-18T18:55:56.091Z,15.00
2018-04-18T18:58:37.526Z,15.10
2018-04-18T19:01:05.058Z,15.10
2018-04-18T19:03:32.592Z,15.10
2018-04-18T19:06:00.966Z,15.20
2018-04-18T19:08:28.498Z,15.20
2018-04-18T19:11:09.407Z,15.30
2018-04-18T19:13:36.995Z,15.30
2018-04-18T19:16:04.565Z,15.30
2018-04-18T19:18:32.093Z,15.30
2018-04-18T19:21:00.666Z,15.20
2018-04-18T19:23:28.172Z,15.20
2018-04-18T19:25:56.467Z,15.20
2018-04-18T19:28:24.033Z,15.20
2018-04-18T19:30:51.592Z,15.20
2018-04-18T19:33:19.136Z,15.00
2018-04-18T19:35:47.441Z,14.70
2018-04-18T19:38:15.029Z,14.70
2018-04-18T19:40:44.087Z,14.50
2018-04-18T19:43:11.698Z,14.50
2018-04-18T19:45:39.449Z,14.40
2018-04-18T19:48:08.756Z,14.10
2018-04-18T19:50:37.235Z,14.10
2018-04-18T19:53:04.786Z,13.80
2018-04-18T19:55:32.510Z,13.60
2018-04-18T19:58:00.138Z,13.40
2018-04-18T20:00:27.759Z,13.40
2018-04-18T20:02:55.376Z,13.40
2018-04-18T20:05:23.278Z,13.40
2018-04-18T20:07:50.899Z,13.40
2018-04-18T20:10:18.469Z,13.30
2018-04-18T20:12:46.031Z,13.20
2018-04-18T20:15:13.594Z,13.00
2018-04-18T20:17:41.923Z,12.80
2018-04-18T20:20:09.578Z,12.80
2018-04-18T20:22:37.988Z,12.70
2018-04-18T20:27:38.332Z,12.50
2018-04-18T20:30:05.852Z,12.60
2018-04-18T20:32:33.393Z,12.60
2018-04-18T20:35:00.988Z,12.50
2018-04-18T20:37:29.259Z,12.40
2018-04-18T20:39:57.591Z,12.40
2018-04-18T20:42:25.903Z,12.40
2018-04-18T20:44:53.440Z,12.40
2018-04-18T20:47:20.988Z,12.30
2018-04-18T20:49:48.525Z,12.30
2018-04-18T20:52:16.086Z,12.20
2018-04-18T20:54:44.548Z,12.20
2018-04-18T20:57:12.087Z,12.10
2018-04-18T20:59:39.708Z,12.10
2018-04-18T21:02:07.269Z,12.10
2018-04-18T21:04:34.782Z,12.00
2018-04-18T21:07:02.296Z,11.90
2018-04-18T21:09:29.823Z,11.80
2018-04-18T21:11:58.136Z,11.70
2018-04-18T21:14:25.726Z,11.70
2018-04-18T21:16:53.229Z,11.70
2018-04-18T21:19:20.730Z,11.70
2018-04-18T21:21:48.283Z,11.60
2018-04-18T21:24:15.814Z,11.60
2018-04-18T21:26:43.387Z,11.60
2018-04-18T21:29:10.922Z,11.50
2018-04-18T21:31:38.560Z,11.50
2018-04-18T21:34:06.091Z,11.40
2018-04-18T21:36:33.638Z,11.40
2018-04-18T21:39:01.167Z,11.40
2018-04-18T21:41:28.704Z,11.40
2018-04-18T21:43:56.282Z,11.40
2018-04-18T21:46:23.796Z,11.40
2018-04-18T21:48:52.104Z,11.60
2018-04-18T21:51:20.384Z,11.50
2018-04-18T21:53:47.898Z,11.50
2018-04-18T21:56:15.435Z,11.40
2018-04-18T21:58:42.952Z,11.30
2018-04-18T22:01:10.508Z,11.10
2018-04-18T22:03:38.069Z,11.00
2018-04-18T22:06:06.335Z,10.80
2018-04-18T22:08:33.847Z,10.80
2018-04-18T22:11:01.382Z,10.70
2018-04-18T22:13:29.669Z,10.60
2018-04-18T22:15:57.246Z,10.60
2018-04-18T22:18:24.785Z,10.50
2018-04-18T22:20:52.296Z,10.40
2018-04-18T22:23:19.820Z,10.50
2018-04-18T22:25:48.111Z,10.60
2018-04-18T22:28:15.625Z,10.60
2018-04-18T22:30:43.137Z,10.40
2018-04-18T22:33:10.643Z,10.40
2018-04-18T22:35:38.250Z,10.30
2018-04-18T22:38:05.795Z,10.30
2018-04-18T22:40:33.390Z,10.30
2018-04-18T22:43:01.696Z,10.10
2018-04-18T22:45:29.966Z,10.10
2018-04-18T22:47:57.472Z,10.10
2018-04-18T22:50:25.012Z,10.00
2018-04-18T22:52:52.545Z,9.90
2018-04-18T22:55:20.080Z,9.80
2018-04-18T22:57:48.370Z,9.80
2018-04-18T23:00:21.403Z,9.80
2018-04-18T23:02:48.933Z,9.70
2018-04-18T23:05:16.470Z,9.70
2018-04-18T23:07:43.977Z,9.60
2018-04-18T23:10:11.560Z,9.50
2018-04-18T23:12:39.150Z,9.50
2018-04-18T23:15:06.736Z,9.50
2018-04-18T23:17:34.301Z,9.50
2018-04-18T23:20:01.839Z,9.40
2018-04-18T23:22:34.180Z,9.40
2018-04-18T23:25:01.708Z,9.30
2018-04-18T23:27:29.256Z,9.20
2018-04-18T23:29:56.781Z,9.20
2018-04-18T23:32:24.332Z,9.10
2018-04-18T23:34:51.860Z,9.10
2018-04-18T23:37:19.397Z,9.10
2018-04-18T23:39:46.892Z,9.10
2018-04-18T23:42:14.400Z,9.10
2018-04-18T23:44:41.964Z,9.00
2018-04-18T23:47:09.541Z,9.00
2018-04-18T23:49:37.081Z,8.90
2018-04-18T23:52:04.631Z,8.90
2018-04-18T23:54:32.166Z,9.00
2018-04-18T23:57:00.462Z,8.90
2018-04-18T23:59:28.758Z,8.90
